Bessemer, Alabama
Current Conditions -  °F | °C
As of 9:53 AM on Friday 21 Nov 2014 (Local Time) from KBHM Reporting Station
Few Clouds Few Clouds  
Wind Chill: 56°   Ceiling: Unl
Heat Index: 56°   Visibility: 10mi
Dew Point: 29°   Wind: 6mph
Humidity: 36%   Direction: 80°E
Pressure: 30.42"   Gusts: NA
Location:  33.4°N, 86.95°W
Report Text: KBHM 211553Z 08005KT 10SM FEW010 13/M02 A3042 RMK AO2 SLP298 FU FEW010 NE T01331017
Loading
Personal Weather Stations






























Interactive Weather Map New forecast layout! Learn more

10-Day Weather Forecast

Advertisements
Track Severe Weather on mobile